createdAt,value
2023-05-09T05:03:27.243Z,53.64
2023-05-09T05:08:30.008Z,53.45
2023-05-09T05:13:33.156Z,53.44
2023-05-09T05:18:36.562Z,53.34
2023-05-09T05:23:38.973Z,53.39
2023-05-09T05:28:40.829Z,53.70
2023-05-09T05:33:42.440Z,53.45
2023-05-09T05:38:44.039Z,52.90
2023-05-09T05:43:45.695Z,53.07
2023-05-09T05:48:49.644Z,52.88
2023-05-09T05:53:51.549Z,52.67
2023-05-09T05:58:53.924Z,52.89
2023-05-09T06:03:55.961Z,52.76
2023-05-09T06:09:00.598Z,52.56
2023-05-09T06:14:02.128Z,52.67
2023-05-09T06:19:04.010Z,52.40
2023-05-09T06:24:11.758Z,53.08
2023-05-09T06:29:15.915Z,52.83
2023-05-09T06:34:17.454Z,52.22
2023-05-09T06:39:18.937Z,51.94
2023-05-09T06:44:20.506Z,52.14
2023-05-09T06:49:22.239Z,51.94
2023-05-09T06:54:23.751Z,51.81
2023-05-09T06:59:25.518Z,51.90
2023-05-09T07:04:27.300Z,51.59
2023-05-09T07:09:28.851Z,51.39
2023-05-09T07:14:30.401Z,50.87
2023-05-09T07:19:31.931Z,50.33
2023-05-09T07:24:33.370Z,50.34
2023-05-09T07:29:34.832Z,50.34
2023-05-09T07:34:36.652Z,50.03
2023-05-09T07:39:38.097Z,49.85
2023-05-09T07:44:40.011Z,49.81
2023-05-09T07:49:43.348Z,50.17
2023-05-09T07:54:44.843Z,49.90
2023-05-09T07:59:46.442Z,49.70
2023-05-09T08:04:50.798Z,49.73
2023-05-09T08:09:52.268Z,49.38
2023-05-09T08:14:53.797Z,48.99
2023-05-09T08:19:55.395Z,49.21
2023-05-09T08:24:56.841Z,48.97
2023-05-09T08:29:58.298Z,48.87
2023-05-09T08:34:59.734Z,48.28
2023-05-09T08:40:01.290Z,48.23
2023-05-09T08:45:16.826Z,48.20
2023-05-09T08:50:19.563Z,47.71
2023-05-09T08:55:22.205Z,47.55
2023-05-09T09:00:26.219Z,47.26
2023-05-09T09:10:40.535Z,46.51
2023-05-09T09:15:45.180Z,45.92
2023-05-09T09:20:52.168Z,45.36
2023-05-09T09:26:01.842Z,45.14
2023-05-09T09:31:20.354Z,44.71
2023-05-09T09:36:36.719Z,44.67
2023-05-09T09:41:39.416Z,44.37
2023-05-09T09:46:51.110Z,44.52
2023-05-09T09:51:54.697Z,44.00
2023-05-09T09:56:56.846Z,43.84
2023-05-09T10:02:05.057Z,43.98
2023-05-09T10:07:13.560Z,43.72
2023-05-09T10:12:19.833Z,43.85
2023-05-09T10:17:22.902Z,43.20
2023-05-09T10:22:24.901Z,43.18
2023-05-09T10:27:28.383Z,43.57
2023-05-09T10:32:51.597Z,43.33
2023-05-09T10:37:56.887Z,43.07
2023-05-09T10:42:58.571Z,42.88
2023-05-09T10:48:03.767Z,42.53
2023-05-09T10:53:08.408Z,42.06
2023-05-09T10:58:30.055Z,41.86
2023-05-09T11:03:57.586Z,41.32
2023-05-09T11:09:28.199Z,41.51
2023-05-09T11:14:43.328Z,41.25
2023-05-09T11:19:47.701Z,40.11
2023-05-09T11:24:51.252Z,39.63
2023-05-09T11:29:55.088Z,39.72
2023-05-09T11:35:16.292Z,39.42
2023-05-09T11:40:19.706Z,39.97
2023-05-09T11:45:22.618Z,38.97
2023-05-09T11:50:24.502Z,38.98
2023-05-09T11:55:29.729Z,38.64
2023-05-09T12:00:31.806Z,38.48
2023-05-09T12:05:33.430Z,38.98
2023-05-09T12:10:38.842Z,39.06
2023-05-09T12:15:42.241Z,38.91
2023-05-09T12:20:50.999Z,37.91
2023-05-09T12:25:57.250Z,37.91
2023-05-09T12:30:58.948Z,38.03
2023-05-09T12:36:18.774Z,38.07
2023-05-09T12:41:34.913Z,37.39
2023-05-09T12:46:41.117Z,37.70
2023-05-09T12:51:52.557Z,37.60
2023-05-09T12:56:56.880Z,37.14
2023-05-09T13:01:59.986Z,36.69
2023-05-09T13:07:01.487Z,34.33
2023-05-09T13:12:04.185Z,30.69
2023-05-09T13:17:05.770Z,29.15
2023-05-09T13:22:07.422Z,27.27
2023-05-09T13:27:10.889Z,27.77
2023-05-09T13:32:12.334Z,25.48
2023-05-09T13:37:13.748Z,25.67
2023-05-09T13:42:16.735Z,25.09
2023-05-09T13:47:19.299Z,24.71
2023-05-09T13:52:20.696Z,26.89
2023-05-09T13:57:22.449Z,27.57
2023-05-09T14:02:24.554Z,29.02
2023-05-09T14:07:26.428Z,29.17
2023-05-09T14:12:28.709Z,29.75
2023-05-09T14:17:30.057Z,30.42
2023-05-09T14:22:31.573Z,30.38
2023-05-09T14:27:36.702Z,29.72
2023-05-09T14:32:38.147Z,29.66
2023-05-09T14:37:41.288Z,29.49
2023-05-09T14:42:44.072Z,29.85
2023-05-09T14:47:46.455Z,29.94
2023-05-09T14:52:50.667Z,30.64
2023-05-09T14:57:52.188Z,30.22
2023-05-09T15:02:53.722Z,29.40
2023-05-09T15:07:55.273Z,28.75
2023-05-09T15:12:56.826Z,27.55
2023-05-09T15:17:58.695Z,27.64
2023-05-09T15:23:00.140Z,28.56
2023-05-09T15:28:02.182Z,30.19
2023-05-09T15:33:03.870Z,30.63
2023-05-09T15:38:05.379Z,31.35
2023-05-09T15:43:08.572Z,31.97
2023-05-09T15:48:14.169Z,32.54
2023-05-09T15:53:16.147Z,33.45
2023-05-09T15:58:17.846Z,33.39
2023-05-09T16:03:19.632Z,33.62
2023-05-09T16:08:21.180Z,33.35
2023-05-09T16:13:22.942Z,33.75
2023-05-09T16:18:24.483Z,34.03
2023-05-09T16:23:26.458Z,34.56
2023-05-09T16:28:29.390Z,34.29
2023-05-09T16:33:32.398Z,33.70
2023-05-09T16:38:34.266Z,31.28
2023-05-09T16:43:35.810Z,30.44
2023-05-09T16:48:37.258Z,30.67
2023-05-09T16:53:38.722Z,30.91
2023-05-09T16:58:40.322Z,31.86
2023-05-09T17:03:41.771Z,32.24
2023-05-09T17:08:43.291Z,32.90
2023-05-09T17:13:44.832Z,33.43
2023-05-09T17:18:47.544Z,33.69
2023-05-09T17:23:55.223Z,34.42
2023-05-09T17:29:03.658Z,34.68
2023-05-09T17:34:05.454Z,34.84
2023-05-09T17:39:13.289Z,35.09
2023-05-09T17:44:18.112Z,35.48
2023-05-09T17:49:19.541Z,35.54
2023-05-09T17:54:21.046Z,36.21
2023-05-09T17:59:22.476Z,36.66
2023-05-09T18:04:31.426Z,37.32
2023-05-09T18:10:10.902Z,37.29
2023-05-09T18:15:22.423Z,37.54
2023-05-09T18:21:09.786Z,38.05
2023-05-09T18:26:30.491Z,37.80
2023-05-09T18:31:39.671Z,37.87
2023-05-09T18:36:56.169Z,38.20
2023-05-09T18:41:57.798Z,38.00
2023-05-09T18:47:23.335Z,38.45
2023-05-09T18:52:24.800Z,38.58
2023-05-09T18:57:44.715Z,39.02
2023-05-09T19:08:35.488Z,39.07
2023-05-09T19:13:51.729Z,39.47
2023-05-09T19:19:00.364Z,39.36
2023-05-09T19:24:09.078Z,39.29
2023-05-09T19:29:16.383Z,40.06
2023-05-09T19:34:17.868Z,40.48
2023-05-09T19:39:22.092Z,40.38
2023-05-09T19:44:26.206Z,40.62
2023-05-09T19:49:27.808Z,41.17
2023-05-09T19:54:37.802Z,41.24
2023-05-09T19:59:42.276Z,41.21
2023-05-09T20:04:49.408Z,41.35
2023-05-09T20:09:53.990Z,41.55
2023-05-09T20:14:55.425Z,41.83
2023-05-09T20:19:57.453Z,41.73
2023-05-09T20:25:01.831Z,42.13
2023-05-09T20:30:04.307Z,42.46
2023-05-09T20:35:06.233Z,42.50
2023-05-09T20:40:08.436Z,42.69
2023-05-09T20:45:10.193Z,42.82
2023-05-09T20:50:11.646Z,42.52
2023-05-09T20:55:13.493Z,43.39
2023-05-09T21:00:15.563Z,43.25
2023-05-09T21:05:17.101Z,43.30
2023-05-09T21:10:18.605Z,43.09
2023-05-09T21:15:20.162Z,43.24
2023-05-09T21:20:21.737Z,43.62
2023-05-09T21:25:23.281Z,43.52
2023-05-09T21:30:24.753Z,43.63
2023-05-09T21:35:26.265Z,43.98
2023-05-09T21:40:27.677Z,43.94
2023-05-09T21:45:29.670Z,44.39
2023-05-09T21:50:31.112Z,44.22
2023-05-09T21:55:32.520Z,44.44
